หน้าหลัก
METAR-TAF:

METAR-TAF

ท่าอากาศยาน :

กอเทนเบิร์ก, สวีเดน

ละติจูด: 57-47N, ลองจิจูด: 011-53E, ความสูง: 20 ม.

การสังเกตสภาพอากาศปัจจุบัน

รายงานได้ทำขึ้นเมื่อ 33 นาทีที่แล้ว ณ เวลา 11:50 UTC
ลม 5 นอตจากตะวันออก, แปรผันระหว่างตะวันออกเฉียงเหนือ และตะวันออกเฉียงใต้
อุณหภูมิ 23°C
ความชื้น 53%
ความกดอากาศ 1020 hPa
ทัศนวิสัย 10 กม. หรือมากกว่า
มีเมฆกระจายเป็นบางส่วนที่ความสูง 3800 ฟุต

METAR: ESGP 251150Z 10005KT 050V140 9999 SCT038 23/13 Q1020

เวลา: 14:23 (12:23 UTC)

การพยากรณ์

รายงานได้ทำขึ้นเมื่อ 53 นาทีที่แล้ว ณ เวลา 11:30 UTC
การพยากรณ์มีผลตั้งแต่วันที่ 25 ณ เวลา 12 UTC จนถึงวันที่ 25 ณ เวลา 17 UTC
ลม 6 นอตจากเหนือ/ตะวันออกเฉียงเหนือ
ทัศนวิสัย 10 กม. หรือมากกว่า
มีเมฆกระจายเป็นบางส่วนที่ความสูง 3500 ฟุต
ความน่าจะเป็น 40%
ตั้งแต่วันที่ 25 ณ เวลา 13 UTC จนถึงวันที่ 25 ณ เวลา 17 UTC
มีเมฆกระจายเป็นบางส่วนที่ความสูง 5000 ฟุต, คิวมูโลนิมบัส.
ฝนโปรยปราย,

TAF: ESGP 251130Z 2512/2517 03006KT 9999 SCT035 PROB40 2513/2517 SHRA SCT050CB

สังเกตการณ์สภาพอากาศและพยากรณ์อากาศของสนามบินมากกว่า 4000 แห่ง (รายงาน METAR และ TAF).

สถานีที่ดูได้จะแสดงไว้ด้วยจุดสีเหลืองและสีแดงบนแผนที่.

เลื่อนเมาส์ไปเหนือจุดเพื่อดูชื่อสถานี.

แล้วคลิกเพื่อดูสังเกตการณ์และการพยากรณ์สภาพอากาศ.

ในการเปลี่ยนแผนที่: คลิกที่ปุ่มสีเขียวที่มีกากบาทสีดำเพื่อซูมเข้า; ที่ปุ่มสีเขียวที่มีขีดเพื่อซูมออก; หรือที่ลูกศรสีเขียวเพื่อไปยังแผนที่ที่อยู่ติดกัน.


METAR-TAF: